Arlington, Alabama
Current Conditions -  °F | °C
As of 4:15 PM on Tuesday 21 Oct 2014 (Local Time) from KDYA Reporting Station
Clear Clear  
Wind Chill: 78°   Ceiling: Unl
Heat Index: 78°   Visibility: 10mi
Dew Point: 47°   Wind: 6mph
Humidity: 34%   Direction: 330°NNW
Pressure: 29.99"   Gusts: NA
Location:  32.06°N, 87.59°W
Report Text: KDYA 212115Z AUTO 33005KT 10SM CLR 26/09 A2999 RMK AO2 T02570085
Loading
Personal Weather Stations






























Interactive Weather Map
Tropical Storm Tracking
New forecast layout! Learn more

10-Day Weather Forecast

Advertisements
Track Severe Weather on mobile